Terminal Aerodrome Forecast
Issued by NWS

Home | Current Version | Previous Version | Graphics & Text | Print | Product List | Glossary On
Versions: 1 2 3 4 5 6 7 8 9 10 11 12 13 14 15 16
000
FTUS43 KFGF 271120
TAFBJI
TAF
KBJI 271120Z 2712/2812 VRB06KT P6SM SCT120
     FM280000 10007KT P6SM VCSH OVC060
     FM280500 08005KT P6SM VCSH OVC015=

USA.gov is the U.S. government's official web portal to all federal, state and local government web resources and services.